Time,TemperatureF,DewpointF,PressureIn,WindDirection,WindDirectionDegrees,WindSpeedMPH,WindSpeedGustMPH,Humidity,HourlyPrecipIn,Conditions,Clouds,dailyrainin,SoftwareType,DateUTC
2013-04-10 00:11:00,41.7,35.0,30.01,East,97,0.0,6.0,78,0.06,,,0.00,weatherlink.com 1.10,2013-04-10 04:11:00,
2013-04-10 00:26:00,41.6,35.0,30.00,ESE,104,0.0,5.0,77,0.00,,,0.00,weatherlink.com 1.10,2013-04-10 04:26:00,
2013-04-10 00:41:00,41.6,35.0,30.01,NW,316,0.0,7.0,77,0.00,,,0.00,weatherlink.com 1.10,2013-04-10 04:41:00,
2013-04-10 00:56:00,41.4,35.0,30.01,ENE,69,0.0,7.0,77,0.00,,,0.00,weatherlink.com 1.10,2013-04-10 04:56:00,
2013-04-10 01:26:00,41.1,34.0,29.99,ENE,63,0.0,6.0,77,0.00,,,0.00,weatherlink.com 1.10,2013-04-10 05:26:00,
2013-04-10 01:41:00,41.1,34.0,30.00,NNW,342,0.0,8.0,77,0.00,,,0.00,weatherlink.com 1.10,2013-04-10 05:41:00,
2013-04-10 01:56:00,41.0,34.0,29.99,ENE,64,0.0,8.0,77,0.00,,,0.00,weatherlink.com 1.10,2013-04-10 05:56:00,
2013-04-10 02:11:00,40.8,34.0,29.97,East,99,4.0,8.0,77,0.00,,,0.00,weatherlink.com 1.10,2013-04-10 06:11:00,
2013-04-10 02:26:00,40.7,34.0,29.97,SSE,149,0.0,10.0,77,0.00,,,0.00,weatherlink.com 1.10,2013-04-10 06:26:00,
2013-04-10 02:41:00,40.5,34.0,29.96,ENE,78,0.0,6.0,77,0.00,,,0.00,weatherlink.com 1.10,2013-04-10 06:41:00,
2013-04-10 02:56:00,40.4,34.0,29.95,East,80,0.0,5.0,77,0.00,,,0.00,weatherlink.com 1.10,2013-04-10 06:56:00,
2013-04-10 03:27:00,40.3,34.0,29.95,East,88,0.0,6.0,77,0.00,,,0.00,weatherlink.com 1.10,2013-04-10 07:27:00,
2013-04-10 03:41:00,40.3,34.0,29.95,ENE,61,2.0,8.0,77,0.00,,,0.00,weatherlink.com 1.10,2013-04-10 07:41:00,
2013-04-10 04:12:00,40.0,34.0,29.93,ENE,70,0.0,8.0,78,0.00,,,0.00,weatherlink.com 1.10,2013-04-10 08:12:00,
2013-04-10 04:27:00,39.7,33.0,29.94,East,84,4.0,9.0,78,0.00,,,0.00,weatherlink.com 1.10,2013-04-10 08:27:00,
2013-04-10 04:42:00,39.6,33.0,29.96,North,355,0.0,6.0,78,0.00,,,0.00,weatherlink.com 1.10,2013-04-10 08:42:00,
2013-04-10 04:57:00,39.7,33.0,29.96,NNE,27,3.0,5.0,78,0.00,,,0.00,weatherlink.com 1.10,2013-04-10 08:57:00,
2013-04-10 05:12:00,39.6,33.0,29.98,NNE,13,0.0,6.0,77,0.00,,,0.00,weatherlink.com 1.10,2013-04-10 09:12:00,
2013-04-10 05:27:00,39.3,33.0,30.00,ENE,75,2.0,7.0,78,0.00,,,0.00,weatherlink.com 1.10,2013-04-10 09:27:00,
2013-04-10 05:42:00,39.2,33.0,29.99,ENE,62,2.0,7.0,77,0.01,,,0.01,weatherlink.com 1.10,2013-04-10 09:42:00,
2013-04-10 05:57:00,39.0,32.0,29.98,ENE,68,5.0,6.0,77,0.02,,,0.02,weatherlink.com 1.10,2013-04-10 09:57:00,
2013-04-10 06:12:00,38.7,32.0,29.95,ENE,72,7.0,7.0,78,0.03,,,0.03,weatherlink.com 1.10,2013-04-10 10:12:00,
2013-04-10 06:26:00,38.6,32.0,29.96,ENE,64,0.0,7.0,78,0.03,,,0.03,weatherlink.com 1.10,2013-04-10 10:26:00,
2013-04-10 06:41:00,38.5,32.0,29.96,NE,46,4.0,9.0,78,0.02,,,0.03,weatherlink.com 1.10,2013-04-10 10:41:00,
2013-04-10 07:11:00,38.5,32.0,29.97,NE,53,0.0,8.0,78,0.01,,,0.04,weatherlink.com 1.10,2013-04-10 11:11:00,
2013-04-10 07:26:00,38.4,32.0,29.98,NE,56,5.0,7.0,78,0.01,,,0.04,weatherlink.com 1.10,2013-04-10 11:26:00,
2013-04-10 07:41:00,38.3,32.0,29.95,ENE,63,3.0,9.0,78,0.02,,,0.05,weatherlink.com 1.10,2013-04-10 11:41:00,
2013-04-10 07:56:00,38.1,32.0,29.93,East,86,6.0,10.0,78,0.03,,,0.06,weatherlink.com 1.10,2013-04-10 11:56:00,
2013-04-10 08:11:00,38.3,32.0,29.94,ENE,75,3.0,8.0,78,0.02,,,0.06,weatherlink.com 1.10,2013-04-10 12:11:00,
2013-04-10 08:26:00,38.5,32.0,29.94,ESE,113,0.0,7.0,78,0.02,,,0.06,weatherlink.com 1.10,2013-04-10 12:26:00,
2013-04-10 08:41:00,38.8,33.0,29.92,ESE,121,3.0,7.0,78,0.01,,,0.06,weatherlink.com 1.10,2013-04-10 12:41:00,
2013-04-10 08:56:00,38.9,33.0,29.97,NW,326,0.0,8.0,78,0.00,,,0.06,weatherlink.com 1.10,2013-04-10 12:56:00,
2013-04-10 09:11:00,39.2,33.0,30.03,NNW,339,4.0,5.0,77,0.03,,,0.09,weatherlink.com 1.10,2013-04-10 13:11:00,
2013-04-10 09:26:00,39.1,33.0,29.99,ENE,61,6.0,6.0,78,0.05,,,0.11,weatherlink.com 1.10,2013-04-10 13:26:00,
2013-04-10 09:41:00,38.9,33.0,29.94,ENE,75,0.0,7.0,78,0.05,,,0.11,weatherlink.com 1.10,2013-04-10 13:41:00,
2013-04-10 09:56:00,38.7,32.0,29.91,ESE,107,1.0,8.0,78,0.07,,,0.13,weatherlink.com 1.10,2013-04-10 13:56:00,
2013-04-10 10:11:00,38.8,33.0,30.01,West,276,0.0,4.0,78,0.07,,,0.16,weatherlink.com 1.10,2013-04-10 14:11:00,
2013-04-10 10:26:00,39.0,32.0,30.02,NW,326,0.0,4.0,77,0.13,,,0.24,weatherlink.com 1.10,2013-04-10 14:26:00,
2013-04-10 10:41:00,38.9,33.0,29.98,ENE,60,1.0,4.0,78,0.21,,,0.32,weatherlink.com 1.10,2013-04-10 14:41:00,
2013-04-10 10:56:00,38.7,32.0,29.81,East,84,3.0,16.0,78,0.23,,,0.37,weatherlink.com 1.10,2013-04-10 14:56:00,
2013-04-10 11:12:00,38.8,33.0,29.86,ENE,63,2.0,16.0,78,0.22,,,0.38,weatherlink.com 1.10,2013-04-10 15:12:00,
2013-04-10 11:26:00,39.3,33.0,29.91,SSW,197,0.0,10.0,78,0.14,,,0.38,weatherlink.com 1.10,2013-04-10 15:26:00,
2013-04-10 11:41:00,39.6,33.0,29.92,ENE,59,5.0,10.0,78,0.06,,,0.38,weatherlink.com 1.10,2013-04-10 15:41:00,
2013-04-10 11:56:00,40.1,34.0,29.91,ENE,77,4.0,11.0,78,0.01,,,0.38,weatherlink.com 1.10,2013-04-10 15:56:00,
2013-04-10 12:11:00,40.3,34.0,29.90,ENE,57,4.0,8.0,78,0.00,,,0.38,weatherlink.com 1.10,2013-04-10 16:11:00,
2013-04-10 12:57:00,41.5,35.0,29.97,NE,52,0.0,3.0,78,0.01,,,0.39,weatherlink.com 1.10,2013-04-10 16:57:00,
2013-04-10 13:12:00,41.5,35.0,29.98,North,11,0.0,5.0,78,0.01,,,0.39,weatherlink.com 1.10,2013-04-10 17:12:00,
2013-04-10 13:27:00,41.6,35.0,29.97,NNW,340,0.0,6.0,78,0.00,,,0.39,weatherlink.com 1.10,2013-04-10 17:27:00,
2013-04-10 13:42:00,41.6,36.0,29.95,NE,48,2.0,8.0,79,0.00,,,0.39,weatherlink.com 1.10,2013-04-10 17:42:00,
2013-04-10 13:57:00,41.4,35.0,29.95,East,81,2.0,9.0,79,0.00,,,0.39,weatherlink.com 1.10,2013-04-10 17:57:00,
2013-04-10 14:12:00,41.4,36.0,29.97,NE,48,2.0,7.0,80,0.00,,,0.39,weatherlink.com 1.10,2013-04-10 18:12:00,
2013-04-10 14:27:00,41.3,36.0,29.97,NE,37,0.0,11.0,80,0.00,,,0.39,weatherlink.com 1.10,2013-04-10 18:27:00,
2013-04-10 14:42:00,41.4,36.0,29.96,ENE,78,3.0,8.0,80,0.00,,,0.39,weatherlink.com 1.10,2013-04-10 18:42:00,
2013-04-10 14:57:00,41.4,36.0,29.95,ESE,118,0.0,6.0,80,0.00,,,0.39,weatherlink.com 1.10,2013-04-10 18:57:00,
2013-04-10 15:12:00,41.5,36.0,29.96,ENE,72,6.0,7.0,81,0.00,,,0.39,weatherlink.com 1.10,2013-04-10 19:12:00,
2013-04-10 15:27:00,41.7,36.0,29.97,ENE,70,2.0,8.0,81,0.00,,,0.39,weatherlink.com 1.10,2013-04-10 19:27:00,
2013-04-10 15:42:00,41.9,37.0,29.98,NE,46,0.0,9.0,81,0.00,,,0.39,weatherlink.com 1.10,2013-04-10 19:42:00,
2013-04-10 15:57:00,42.0,37.0,29.98,ENE,64,7.0,9.0,81,0.00,,,0.39,weatherlink.com 1.10,2013-04-10 19:57:00,
2013-04-10 16:12:00,41.9,37.0,29.97,East,82,2.0,8.0,82,0.00,,,0.39,weatherlink.com 1.10,2013-04-10 20:12:00,
2013-04-10 16:27:00,41.9,37.0,30.01,East,96,0.0,5.0,81,0.00,,,0.39,weatherlink.com 1.10,2013-04-10 20:27:00,
2013-04-10 16:42:00,41.6,36.0,30.02,ESE,106,0.0,7.0,81,0.00,,,0.39,weatherlink.com 1.10,2013-04-10 20:42:00,
2013-04-10 16:57:00,41.2,36.0,30.02,ENE,67,7.0,7.0,80,0.00,,,0.39,weatherlink.com 1.10,2013-04-10 20:57:00,
2013-04-10 17:12:00,40.9,35.0,30.00,NE,48,0.0,8.0,79,0.00,,,0.39,weatherlink.com 1.10,2013-04-10 21:12:00,
2013-04-10 17:27:00,40.8,34.0,29.95,WNW,302,9.0,14.0,78,0.00,,,0.39,weatherlink.com 1.10,2013-04-10 21:27:00,
2013-04-10 17:42:00,41.0,35.0,29.91,NE,48,3.0,10.0,79,0.00,,,0.39,weatherlink.com 1.10,2013-04-10 21:42:00,
2013-04-10 17:57:00,41.3,36.0,29.97,NNW,335,10.0,10.0,81,0.00,,,0.39,weatherlink.com 1.10,2013-04-10 21:57:00,
2013-04-10 18:12:00,41.4,36.0,29.98,NE,46,3.0,8.0,82,0.00,,,0.39,weatherlink.com 1.10,2013-04-10 22:12:00,
2013-04-10 18:27:00,41.5,36.0,29.98,SSE,155,0.0,9.0,82,0.00,,,0.39,weatherlink.com 1.10,2013-04-10 22:27:00,
2013-04-10 18:42:00,41.6,37.0,29.98,NNE,33,5.0,12.0,82,0.00,,,0.39,weatherlink.com 1.10,2013-04-10 22:42:00,
2013-04-10 18:57:00,41.5,36.0,29.99,East,86,2.0,7.0,82,0.00,,,0.39,weatherlink.com 1.10,2013-04-10 22:57:00,
2013-04-10 19:12:00,41.4,36.0,29.99,East,82,1.0,7.0,82,0.00,,,0.39,weatherlink.com 1.10,2013-04-10 23:12:00,
2013-04-10 19:27:00,41.4,37.0,29.98,East,92,0.0,8.0,83,0.00,,,0.39,weatherlink.com 1.10,2013-04-10 23:27:00,
2013-04-10 19:42:00,41.3,37.0,29.98,SE,124,5.0,12.0,83,0.00,,,0.39,weatherlink.com 1.10,2013-04-10 23:42:00,
2013-04-10 19:57:00,41.1,36.0,29.96,ENE,77,0.0,15.0,83,0.00,,,0.39,weatherlink.com 1.10,2013-04-10 23:57:00,
2013-04-10 20:12:00,41.0,36.0,29.96,East,100,0.0,10.0,83,0.00,,,0.39,weatherlink.com 1.10,2013-04-11 00:12:00,
2013-04-10 20:27:00,40.8,36.0,29.96,East,94,0.0,10.0,83,0.00,,,0.39,weatherlink.com 1.10,2013-04-11 00:27:00,
2013-04-10 20:42:00,40.7,36.0,29.97,ENE,77,2.0,12.0,83,0.00,,,0.39,weatherlink.com 1.10,2013-04-11 00:42:00,
2013-04-10 20:57:00,40.5,36.0,29.96,SE,136,0.0,9.0,83,0.00,,,0.39,weatherlink.com 1.10,2013-04-11 00:57:00,
2013-04-10 21:12:00,40.2,35.0,29.95,NE,47,0.0,10.0,83,0.00,,,0.39,weatherlink.com 1.10,2013-04-11 01:12:00,
2013-04-10 21:27:00,40.0,35.0,29.96,North,349,3.0,12.0,83,0.00,,,0.39,weatherlink.com 1.10,2013-04-11 01:27:00,
2013-04-10 21:42:00,39.8,35.0,29.96,ENE,64,4.0,10.0,82,0.00,,,0.39,weatherlink.com 1.10,2013-04-11 01:42:00,
2013-04-10 21:57:00,39.5,34.0,29.95,SSE,153,3.0,12.0,82,0.00,,,0.39,weatherlink.com 1.10,2013-04-11 01:57:00,
2013-04-10 22:12:00,39.3,34.0,29.96,ENE,77,1.0,9.0,82,0.00,,,0.39,weatherlink.com 1.10,2013-04-11 02:12:00,
2013-04-10 22:27:00,39.1,34.0,29.97,East,95,0.0,7.0,83,0.00,,,0.39,weatherlink.com 1.10,2013-04-11 02:27:00,
2013-04-10 22:43:00,38.7,34.0,29.96,NE,53,2.0,8.0,83,0.00,,,0.39,weatherlink.com 1.10,2013-04-11 02:43:00,
2013-04-10 22:57:00,38.4,34.0,29.97,NE,49,1.0,9.0,83,0.00,,,0.39,weatherlink.com 1.10,2013-04-11 02:57:00,
2013-04-10 23:12:00,38.3,34.0,29.97,East,87,2.0,8.0,83,0.00,,,0.39,weatherlink.com 1.10,2013-04-11 03:12:00,
2013-04-10 23:42:00,37.8,33.0,29.98,WNW,300,4.0,11.0,82,0.00,,,0.39,weatherlink.com 1.10,2013-04-11 03:42:00,
2013-04-10 23:57:00,37.7,33.0,29.98,NE,49,0.0,12.0,82,0.00,,,0.39,weatherlink.com 1.10,2013-04-11 03:57:00,